Portada
METAR-TAF:

METAR-TAF

Aeropuertos :

Aeropuerto Internacional de Sunan

Pionyang, Corea del Norte

latitud: 39-02N, longitud: 125-47E, altitud: 36 m

METAR: falta

Hora: 07:36 (22:36 UTC)

Pronóstico

El informe se hizo hace 18 horas y 36 minutos, a las 04:00 UTC
Pronóstico válido del 20 a las 06 UTC al 21 a las 06 UTC
Viento 8 kt del noreste
Visibilidad 10 km o más
Cielo cubierto a una altura de 3300 ft
Evolucionando progresivamente
del 20 a las 09 UTC al 20 a las 11 UTC
Viento 8 kt del sur
Evolucionando progresivamente
del 20 a las 15 UTC al 20 a las 17 UTC
Visibilidad: 4000 m
Cielo cubierto a una altura de 2000 ft
poca nieve,

TAF: ZKPY 200400Z 2006/2106 04004MPS 9999 OVC033 TX05/2006Z TNM03/2022Z BECMG 2009/2011 17004MPS BECMG 2015/2017 4000 -SN OVC020

Observaciones y pronósticos meteorológicos de más de 4000 aeropuertos (mensajes METAR y TAF).

Los puntos amarillos y rojos representan las estaciones disponibles.

Ponga el ratón en el punto deseado para ver el nombre de la estación.

Haga clic para ver las observaciones y los pronósticos meteorológicos.

Para cambiar el mapa : haga clic en los botones verdes con una cruz de color negro para hacer un zoom, en el botón verde con un guión para alejar o en las flechas verdes para mapas adyacentes.


METAR-TAF: